Time;durP1;ratioP1;P1;durP2;ratioP2;P2;SDS_P1;SDS_P2;PMS_P1;PMS_P2;Temp;Humidity;BMP_temperature;BMP_pressure;BME280_temperature;BME280_humidity;BME280_pressure;Samples;Min_cycle;Max_cycle;Signal;HPM_P1;HPM_P2
2021/12/06 00:01:22;;;;;;;42.35;33.08;;;0.80;99.90;;;;;;5009921;28;20038;-62
2021/12/06 00:03:53;;;;;;;43.55;31.83;;;3.40;99.90;;;;;;4992761;28;20048;-62
2021/12/06 00:06:21;;;;;;;47.20;32.78;;;-0.20;99.90;;;;;;5010720;28;20061;-62
2021/12/06 00:08:47;;;;;;;42.45;30.05;;;0.30;99.90;;;;;;5004710;28;20056;-62
2021/12/06 00:11:14;;;;;;;50.92;36.28;;;3.30;99.90;;;;;;5010689;28;20052;-62
2021/12/06 00:13:43;;;;;;;46.95;33.88;;;2.50;99.90;;;;;;4993108;28;20043;-62
2021/12/06 00:16:15;;;;;;;56.83;39.53;;;3.40;99.90;;;;;;5027095;28;20065;-62
2021/12/06 00:18:41;;;;;;;51.58;36.13;;;2.60;99.90;;;;;;5025168;28;20056;-62
2021/12/06 00:21:08;;;;;;;41.35;27.10;;;-0.10;99.90;;;;;;4994218;28;20048;-62
2021/12/06 00:23:34;;;;;;;52.67;35.17;;;3.80;99.90;;;;;;5009955;28;20041;-62
2021/12/06 00:26:00;;;;;;;61.20;40.10;;;2.70;99.90;;;;;;5011316;28;20038;-63
2021/12/06 00:28:27;;;;;;;56.70;41.42;;;-0.20;99.90;;;;;;5006995;28;20034;-62
2021/12/06 00:30:53;;;;;;;56.67;39.22;;;0.10;99.90;;;;;;5010870;28;20084;-62
2021/12/06 00:33:19;;;;;;;57.53;41.08;;;0.00;99.90;;;;;;5009873;28;20555;-62
2021/12/06 00:35:45;;;;;;;52.83;36.47;;;3.40;99.90;;;;;;5009630;28;20049;-62
2021/12/06 00:38:11;;;;;;;54.53;37.53;;;3.80;99.90;;;;;;5009189;28;20041;-62
2021/12/06 00:40:42;;;;;;;52.72;36.45;;;3.80;99.90;;;;;;5009299;28;20045;-63
2021/12/06 00:43:08;;;;;;;54.28;38.90;;;3.20;99.90;;;;;;5010840;28;20057;-62
2021/12/06 00:45:34;;;;;;;59.08;42.08;;;3.80;99.90;;;;;;5010448;28;20042;-62
2021/12/06 00:48:01;;;;;;;55.22;38.60;;;2.40;99.90;;;;;;5008981;28;20050;-62
2021/12/06 00:50:30;;;;;;;58.50;39.72;;;2.70;99.90;;;;;;5020632;28;20403;-62
2021/12/06 00:52:56;;;;;;;52.17;35.53;;;0.00;99.90;;;;;;5008454;28;20046;-62
2021/12/06 00:55:23;;;;;;;56.80;41.30;;;-0.10;99.90;;;;;;5009004;28;20447;-62
2021/12/06 00:57:52;;;;;;;53.13;37.15;;;2.30;99.90;;;;;;5022734;28;20050;-63
2021/12/06 01:00:37;;;;;;;54.70;37.03;;;2.80;99.90;;;;;;5009304;28;20076;-62
2021/12/06 01:03:05;;;;;;;50.58;34.53;;;2.00;99.90;;;;;;5010675;28;20483;-62
2021/12/06 01:05:32;;;;;;;56.78;39.05;;;1.20;99.90;;;;;;5008412;28;20116;-62
2021/12/06 01:07:57;;;;;;;51.58;32.88;;;2.00;99.90;;;;;;5016132;28;20436;-62
2021/12/06 01:10:26;;;;;;;50.35;35.63;;;2.70;99.90;;;;;;5008298;28;20033;-62
2021/12/06 01:12:53;;;;;;;52.53;38.10;;;2.70;99.90;;;;;;5008741;28;20053;-62
2021/12/06 01:15:19;;;;;;;53.58;36.22;;;3.40;99.90;;;;;;5008485;28;20054;-62
2021/12/06 01:17:46;;;;;;;56.80;39.42;;;3.20;99.90;;;;;;5008359;28;20080;-62
2021/12/06 01:20:18;;;;;;;55.67;38.47;;;3.70;99.90;;;;;;4992522;28;20073;-62
2021/12/06 01:22:54;;;;;;;57.03;40.80;;;2.90;99.90;;;;;;5008856;28;20107;-62
2021/12/06 01:31:11;;;;;;;49.20;32.45;;;0.50;99.90;;;;;;5007998;28;20046;-62
2021/12/06 01:41:18;;;;;;;49.95;33.92;;;3.20;99.90;;;;;;5013360;28;20508;-62
2021/12/06 01:44:06;;;;;;;52.10;35.20;;;0.20;99.90;;;;;;4991694;28;20054;-63
2021/12/06 01:46:34;;;;;;;57.13;38.25;;;1.30;99.90;;;;;;5005444;28;20176;-62
2021/12/06 01:49:00;;;;;;;42.40;23.95;;;3.40;99.90;;;;;;5007932;28;20038;-62
2021/12/06 01:51:27;;;;;;;55.78;39.53;;;0.20;99.90;;;;;;5007699;28;20052;-62
2021/12/06 01:53:53;;;;;;;53.85;36.08;;;1.00;99.90;;;;;;5007305;28;20045;-62
2021/12/06 01:56:19;;;;;;;56.30;36.90;;;2.20;99.90;;;;;;5009187;28;20037;-62
2021/12/06 01:58:45;;;;;;;53.75;37.10;;;3.50;99.90;;;;;;4989591;28;20732;-63
2021/12/06 02:01:10;;;;;;;55.33;36.22;;;0.10;99.90;;;;;;5009046;28;20050;-62
2021/12/06 02:03:38;;;;;;;47.10;29.52;;;0.60;99.90;;;;;;5008883;28;20372;-61
2021/12/06 02:06:04;;;;;;;48.20;29.38;;;2.60;99.90;;;;;;5009040;28;20129;-61
2021/12/06 02:08:30;;;;;;;53.03;35.53;;;0.30;99.90;;;;;;5007909;28;20041;-61
2021/12/06 02:11:02;;;;;;;58.60;38.38;;;0.30;99.90;;;;;;5010133;28;20550;-61
2021/12/06 02:13:33;;;;;;;53.72;35.55;;;0.10;99.90;;;;;;5009222;28;20475;-63
2021/12/06 02:15:58;;;;;;;53.17;34.95;;;3.20;99.90;;;;;;5022172;28;20495;-62
2021/12/06 02:21:15;;;;;;;60.78;39.63;;;1.90;99.90;;;;;;5020368;28;20042;-61
2021/12/06 02:23:41;;;;;;;55.22;36.15;;;2.00;99.90;;;;;;5007504;28;20057;-62
2021/12/06 02:26:07;;;;;;;60.38;37.28;;;0.20;99.90;;;;;;5007177;28;20412;-61
2021/12/06 02:28:33;;;;;;;58.42;36.75;;;0.40;99.90;;;;;;4990552;28;20049;-61
2021/12/06 02:30:59;;;;;;;46.15;24.10;;;0.30;99.90;;;;;;5005213;28;20034;-61
2021/12/06 02:33:25;;;;;;;63.70;40.05;;;3.80;99.90;;;;;;5008851;28;20072;-61
2021/12/06 02:35:52;;;;;;;59.30;36.53;;;2.30;99.90;;;;;;4989919;28;20049;-61
2021/12/06 02:38:19;;;;;;;57.53;33.97;;;3.10;99.90;;;;;;4991843;28;20053;-61
2021/12/06 02:40:45;;;;;;;64.97;38.60;;;1.90;99.90;;;;;;5009297;28;20088;-61
2021/12/06 02:43:12;;;;;;;35.85;17.92;;;2.70;99.90;;;;;;5009707;28;20049;-60
2021/12/06 02:45:39;;;;;;;51.08;32.78;;;3.90;99.90;;;;;;5007807;28;20519;-61
2021/12/06 02:48:08;;;;;;;50.25;31.80;;;0.30;99.90;;;;;;5020014;28;20436;-60
2021/12/06 02:50:44;;;;;;;55.42;36.05;;;0.50;99.90;;;;;;5009600;28;20426;-60
2021/12/06 02:53:11;;;;;;;49.80;29.95;;;3.70;99.90;;;;;;4991722;28;20041;-60
2021/12/06 02:55:38;;;;;;;38.45;22.42;;;1.10;99.90;;;;;;5008068;28;20125;-61
2021/12/06 03:00:55;;;;;;;56.63;32.55;;;3.90;99.90;;;;;;5009552;28;20140;-60
2021/12/06 03:03:22;;;;;;;56.10;31.52;;;3.60;99.90;;;;;;5007685;28;20085;-60
2021/12/06 03:05:52;;;;;;;61.17;35.58;;;1.40;99.90;;;;;;5006992;28;20046;-60
2021/12/06 03:08:49;;;;;;;42.92;24.15;;;2.60;99.90;;;;;;5005431;28;20519;-60
2021/12/06 03:11:19;;;;;;;61.40;37.60;;;1.90;99.90;;;;;;5008478;28;20084;-62
2021/12/06 03:13:46;;;;;;;46.53;27.83;;;1.30;99.90;;;;;;5005924;28;20042;-60
2021/12/06 03:16:12;;;;;;;63.10;37.78;;;3.70;99.90;;;;;;5008602;28;20038;-60
2021/12/06 03:18:37;;;;;;;63.25;37.63;;;0.50;99.90;;;;;;5006851;28;20052;-61
2021/12/06 03:21:04;;;;;;;56.33;33.17;;;1.00;99.90;;;;;;4974057;28;20050;-62
2021/12/06 03:23:30;;;;;;;59.45;35.13;;;1.80;99.90;;;;;;5004142;28;20419;-61
2021/12/06 03:25:56;;;;;;;58.63;35.45;;;0.80;99.90;;;;;;5005120;28;20053;-61
2021/12/06 03:28:22;;;;;;;64.55;37.15;;;0.40;99.90;;;;;;4989633;28;20031;-61
2021/12/06 03:30:47;;;;;;;64.22;36.38;;;0.40;99.90;;;;;;5006558;28;20030;-61
2021/12/06 03:33:13;;;;;;;59.67;33.20;;;2.80;99.90;;;;;;5006394;28;20046;-61
2021/12/06 03:35:39;;;;;;;56.53;31.50;;;1.90;99.90;;;;;;5006282;28;20125;-61
2021/12/06 03:38:05;;;;;;;59.45;33.25;;;0.50;99.90;;;;;;5006751;28;20399;-61
2021/12/06 03:40:30;;;;;;;64.40;36.45;;;0.50;99.90;;;;;;4990359;28;20478;-61
2021/12/06 03:42:56;;;;;;;42.38;22.77;;;0.60;99.90;;;;;;5006407;28;20050;-61
2021/12/06 03:45:22;;;;;;;56.10;29.90;;;0.30;99.90;;;;;;5005493;28;20060;-61
2021/12/06 03:47:48;;;;;;;71.30;40.90;;;1.00;99.90;;;;;;5008015;28;20559;-61
2021/12/06 03:50:14;;;;;;;68.70;38.45;;;0.20;99.90;;;;;;5006429;28;20137;-61
2021/12/06 03:52:40;;;;;;;40.95;21.13;;;1.10;99.90;;;;;;5006316;28;20080;-61
2021/12/06 03:55:08;;;;;;;44.58;24.15;;;0.20;99.90;;;;;;5006591;28;20458;-61
2021/12/06 03:57:34;;;;;;;62.45;35.78;;;3.20;99.90;;;;;;5008220;28;20042;-61
2021/12/06 04:00:00;;;;;;;53.38;31.38;;;1.00;99.90;;;;;;4993339;28;20050;-61
2021/12/06 04:02:29;;;;;;;59.67;34.83;;;0.50;99.90;;;;;;5009972;28;20053;-61
2021/12/06 04:04:56;;;;;;;59.97;35.65;;;1.40;99.90;;;;;;5011091;28;20480;-61
2021/12/06 04:07:22;;;;;;;49.95;28.27;;;0.30;99.90;;;;;;5010875;28;20489;-60
2021/12/06 04:09:48;;;;;;;44.97;26.15;;;3.80;99.90;;;;;;5011697;28;20049;-60
2021/12/06 04:12:15;;;;;;;59.25;35.42;;;1.90;99.90;;;;;;5011432;28;20041;-60
2021/12/06 04:14:43;;;;;;;51.13;28.60;;;0.30;99.90;;;;;;5012307;28;20107;-60
2021/12/06 04:17:12;;;;;;;62.28;36.53;;;2.00;99.90;;;;;;5010203;28;20407;-60
2021/12/06 04:19:40;;;;;;;60.20;36.13;;;3.90;99.90;;;;;;5002260;28;20049;-60
2021/12/06 04:22:06;;;;;;;53.33;31.73;;;0.60;99.90;;;;;;5011026;28;20059;-59
2021/12/06 04:24:32;;;;;;;57.55;31.25;;;3.80;99.90;;;;;;5010269;28;20516;-60
2021/12/06 04:26:58;;;;;;;53.83;31.90;;;0.70;99.90;;;;;;5010829;28;20176;-60
2021/12/06 04:29:25;;;;;;;58.50;34.67;;;3.40;99.90;;;;;;5011043;28;20113;-60
2021/12/06 04:31:53;;;;;;;53.80;31.33;;;1.80;99.90;;;;;;5010638;28;20049;-59
2021/12/06 04:34:20;;;;;;;53.45;30.65;;;1.10;99.90;;;;;;5011956;28;20068;-60
2021/12/06 04:36:46;;;;;;;48.03;27.05;;;3.80;99.90;;;;;;5009018;28;20107;-60
2021/12/06 04:39:16;;;;;;;53.65;31.00;;;0.60;99.90;;;;;;5012206;28;20124;-60
2021/12/06 04:41:43;;;;;;;65.13;37.20;;;1.30;99.90;;;;;;5010311;28;20038;-61
2021/12/06 04:44:10;;;;;;;58.17;35.05;;;3.10;99.90;;;;;;5009036;28;20129;-61
2021/12/06 04:46:37;;;;;;;59.15;34.63;;;0.30;99.90;;;;;;5007460;28;20053;-60
2021/12/06 04:49:03;;;;;;;58.67;34.50;;;1.30;99.90;;;;;;5010701;28;20084;-60
2021/12/06 04:51:30;;;;;;;55.80;32.63;;;0.40;99.90;;;;;;4992507;28;20050;-60
2021/12/06 04:53:56;;;;;;;62.88;37.00;;;0.20;99.90;;;;;;5009141;28;20057;-61
2021/12/06 04:56:31;;;;;;;65.20;34.03;;;3.80;99.90;;;;;;5008362;28;20046;-60
2021/12/06 04:58:59;;;;;;;58.35;36.08;;;0.30;99.90;;;;;;5009379;28;20041;-60
2021/12/06 05:01:28;;;;;;;64.60;35.40;;;3.90;99.90;;;;;;5007709;28;20052;-61
2021/12/06 05:03:57;;;;;;;66.40;39.35;;;2.20;99.90;;;;;;5008889;28;20119;-60
2021/12/06 05:06:27;;;;;;;57.55;31.65;;;3.90;99.90;;;;;;5008349;28;20512;-60
2021/12/06 05:08:56;;;;;;;62.75;35.75;;;0.30;99.90;;;;;;5008522;28;20037;-60
2021/12/06 05:11:25;;;;;;;63.90;37.75;;;2.30;99.90;;;;;;4992406;28;20053;-60
2021/12/06 05:13:53;;;;;;;72.63;41.28;;;3.70;99.90;;;;;;5009519;28;20049;-60
2021/12/06 05:16:19;;;;;;;80.05;45.22;;;0.30;99.90;;;;;;5007747;28;20066;-60
2021/12/06 05:18:45;;;;;;;75.30;41.83;;;3.70;99.90;;;;;;5006650;28;20050;-61
2021/12/06 05:21:11;;;;;;;69.85;39.35;;;3.80;99.90;;;;;;5008390;28;20052;-60
2021/12/06 05:23:37;;;;;;;80.30;45.60;;;1.80;99.90;;;;;;5008790;28;20128;-61
2021/12/06 05:26:04;;;;;;;71.55;41.28;;;3.90;99.90;;;;;;5008510;28;20042;-61
2021/12/06 05:28:32;;;;;;;63.42;36.83;;;3.80;99.90;;;;;;5007969;28;20041;-61
2021/12/06 05:30:59;;;;;;;59.05;33.15;;;3.80;99.90;;;;;;5008194;28;20070;-61
2021/12/06 05:33:29;;;;;;;53.60;31.88;;;3.50;99.90;;;;;;5008125;28;20140;-61
2021/12/06 05:35:58;;;;;;;56.95;32.33;;;1.80;99.90;;;;;;5009847;28;20504;-61
2021/12/06 05:38:28;;;;;;;64.40;37.13;;;1.20;99.90;;;;;;5007821;28;20064;-60
2021/12/06 05:40:55;;;;;;;58.58;32.47;;;2.30;99.90;;;;;;5007654;28;20050;-61
2021/12/06 05:43:21;;;;;;;59.92;34.88;;;2.20;99.90;;;;;;5008093;28;20056;-61
2021/12/06 05:45:47;;;;;;;64.72;36.40;;;1.70;99.90;;;;;;5007837;28;20526;-61
2021/12/06 05:48:13;;;;;;;55.22;31.83;;;3.70;99.90;;;;;;4991261;28;20121;-61
2021/12/06 05:50:39;;;;;;;67.97;39.55;;;2.80;99.90;;;;;;4992019;28;20072;-60
2021/12/06 05:53:04;;;;;;;49.70;27.63;;;2.00;99.90;;;;;;5007801;28;20077;-61
2021/12/06 05:55:30;;;;;;;61.72;36.47;;;1.10;99.90;;;;;;5009128;28;20143;-61
2021/12/06 05:58:00;;;;;;;53.72;31.42;;;3.80;99.90;;;;;;5007856;28;20053;-61
2021/12/06 06:00:29;;;;;;;47.08;26.67;;;3.30;99.90;;;;;;5007925;28;20459;-61
2021/12/06 06:02:56;;;;;;;62.53;35.17;;;3.70;99.90;;;;;;4991407;28;20077;-61
2021/12/06 06:05:22;;;;;;;67.32;39.00;;;2.00;99.90;;;;;;5009149;28;20121;-61
2021/12/06 06:07:48;;;;;;;48.72;27.67;;;3.70;99.90;;;;;;5007164;28;20455;-61
2021/12/06 06:10:15;;;;;;;37.22;21.42;;;3.00;99.90;;;;;;5009218;28;20085;-61
2021/12/06 06:12:41;;;;;;;52.40;30.23;;;1.20;99.90;;;;;;5007811;28;20040;-61
2021/12/06 06:15:07;;;;;;;32.05;18.75;;;3.30;99.90;;;;;;5007093;28;20038;-61
2021/12/06 06:17:40;;;;;;;56.97;32.63;;;0.40;99.90;;;;;;5007250;28;20088;-61
2021/12/06 06:20:10;;;;;;;61.30;33.90;;;3.20;99.90;;;;;;5007128;28;20057;-60
2021/12/06 06:22:36;;;;;;;56.95;31.55;;;0.90;99.90;;;;;;5006893;28;20041;-61
2021/12/06 06:25:02;;;;;;;48.95;27.40;;;3.50;99.90;;;;;;5008540;28;20104;-61
2021/12/06 06:27:28;;;;;;;59.33;34.53;;;3.70;99.90;;;;;;5007161;28;20050;-61
2021/12/06 06:29:53;;;;;;;68.05;38.08;;;3.50;99.90;;;;;;5008694;28;20034;-61
2021/12/06 06:32:19;;;;;;;68.45;38.63;;;3.40;99.90;;;;;;5008744;28;20120;-60
2021/12/06 06:34:45;;;;;;;50.28;26.05;;;1.30;99.90;;;;;;5008393;28;20042;-60
2021/12/06 06:37:11;;;;;;;54.22;29.00;;;1.90;99.90;;;;;;4991021;28;20041;-60
2021/12/06 06:39:36;;;;;;;66.18;36.05;;;0.50;99.90;;;;;;5007232;28;20462;-61
2021/12/06 06:42:02;;;;;;;65.80;36.75;;;0.30;99.90;;;;;;5008375;28;20038;-61
2021/12/06 06:44:28;;;;;;;64.55;36.60;;;0.20;99.90;;;;;;4987941;28;20488;-61
2021/12/06 06:46:54;;;;;;;67.35;36.20;;;1.60;99.90;;;;;;5008276;28;20061;-61
2021/12/06 06:49:20;;;;;;;53.75;27.73;;;3.80;99.90;;;;;;5008199;28;20050;-61
2021/12/06 06:51:46;;;;;;;37.72;19.88;;;0.40;99.90;;;;;;5007052;28;20553;-61
2021/12/06 06:54:13;;;;;;;61.95;32.38;;;2.70;99.90;;;;;;5006968;28;20038;-61
2021/12/06 06:56:39;;;;;;;73.75;39.72;;;0.70;99.90;;;;;;5007284;28;20085;-61
2021/12/06 06:59:05;;;;;;;65.90;33.38;;;0.30;99.90;;;;;;5007251;28;20492;-61
2021/12/06 07:01:31;;;;;;;64.80;33.83;;;2.70;99.90;;;;;;5008200;28;20036;-60
2021/12/06 07:03:57;;;;;;;75.60;40.25;;;2.80;99.90;;;;;;4990354;28;20084;-61
2021/12/06 07:06:28;;;;;;;32.78;19.00;;;0.10;99.90;;;;;;5006723;28;20049;-61
2021/12/06 07:08:56;;;;;;;60.17;31.52;;;3.20;99.90;;;;;;5008140;28;20077;-60
2021/12/06 07:11:22;;;;;;;58.88;31.05;;;0.50;99.90;;;;;;4990775;28;20154;-61
2021/12/06 07:13:48;;;;;;;48.28;24.85;;;3.10;99.90;;;;;;5006875;28;20081;-61
2021/12/06 07:16:15;;;;;;;65.68;35.70;;;0.60;99.90;;;;;;5003833;28;20500;-61
2021/12/06 07:18:42;;;;;;;68.45;36.40;;;3.60;99.90;;;;;;5006901;28;20529;-60
2021/12/06 07:21:09;;;;;;;51.75;26.52;;;3.00;99.90;;;;;;4974108;28;20046;-61
2021/12/06 07:23:38;;;;;;;51.42;24.95;;;0.50;99.90;;;;;;5006647;28;20049;-60
2021/12/06 07:26:14;;;;;;;68.03;30.60;;;1.90;99.90;;;;;;4988506;28;20053;-60
2021/12/06 07:28:41;;;;;;;81.00;39.78;;;0.30;99.90;;;;;;5008093;28;20542;-61
2021/12/06 07:31:08;;;;;;;81.60;40.63;;;1.40;99.90;;;;;;5005458;28;20052;-61
2021/12/06 07:33:35;;;;;;;66.57;31.30;;;3.30;99.90;;;;;;5005973;28;20529;-60
2021/12/06 07:36:01;;;;;;;91.55;45.90;;;2.50;99.90;;;;;;4992390;28;20138;-60
2021/12/06 07:38:27;;;;;;;88.03;44.80;;;0.90;99.90;;;;;;5006907;28;20041;-60
2021/12/06 07:40:55;;;;;;;67.70;34.72;;;0.30;99.90;;;;;;5011980;28;20100;-59
2021/12/06 07:43:21;;;;;;;93.90;46.58;;;3.60;99.90;;;;;;5010515;28;20050;-61
2021/12/06 07:45:47;;;;;;;91.82;46.42;;;0.80;99.90;;;;;;5004778;28;20073;-61
2021/12/06 07:48:14;;;;;;;95.00;44.45;;;2.50;99.90;;;;;;5010216;28;20053;-62
2021/12/06 07:50:41;;;;;;;98.78;46.80;;;2.50;99.90;;;;;;5010397;28;20041;-61
2021/12/06 07:53:07;;;;;;;91.53;44.58;;;3.20;99.90;;;;;;5008584;28;20042;-61
2021/12/06 07:55:34;;;;;;;95.22;47.05;;;3.70;99.90;;;;;;5010579;28;20034;-61
2021/12/06 07:58:02;;;;;;;96.40;47.40;;;3.90;99.90;;;;;;5010421;28;20471;-61
2021/12/06 08:00:29;;;;;;;93.35;46.60;;;3.10;99.90;;;;;;5011552;28;20026;-61
2021/12/06 08:02:55;;;;;;;84.25;42.58;;;1.90;99.90;;;;;;5010112;28;20034;-61
2021/12/06 08:05:36;;;;;;;86.20;43.85;;;0.50;99.90;;;;;;5010544;28;20053;-61
2021/12/06 08:08:23;;;;;;;77.10;40.00;;;0.20;99.90;;;;;;5009957;28;20456;-61
2021/12/06 08:10:53;;;;;;;78.45;40.40;;;0.40;99.90;;;;;;4994167;28;20077;-61
2021/12/06 08:13:21;;;;;;;79.05;41.75;;;3.50;99.90;;;;;;5010394;28;20030;-60
2021/12/06 08:15:49;;;;;;;79.53;42.08;;;3.80;99.90;;;;;;5011844;28;20034;-60
2021/12/06 08:18:15;;;;;;;83.90;44.15;;;0.60;99.90;;;;;;5011833;28;20383;-60
2021/12/06 08:20:42;;;;;;;80.88;43.22;;;0.10;99.90;;;;;;5012492;28;20410;-61
2021/12/06 08:23:10;;;;;;;76.70;38.75;;;3.10;99.90;;;;;;4994617;28;20085;-61
2021/12/06 08:25:36;;;;;;;74.82;39.03;;;2.30;99.90;;;;;;5008889;28;20042;-61
2021/12/06 08:28:03;;;;;;;75.63;41.67;;;0.50;99.90;;;;;;5009633;28;20511;-62
2021/12/06 08:30:29;;;;;;;78.72;38.67;;;3.80;99.90;;;;;;5010789;28;20053;-61
2021/12/06 08:32:58;;;;;;;79.35;42.33;;;1.60;99.90;;;;;;5009441;28;20125;-61
2021/12/06 08:35:26;;;;;;;75.38;37.88;;;1.30;99.90;;;;;;5009242;28;20060;-61
2021/12/06 08:37:53;;;;;;;81.53;41.97;;;3.60;99.90;;;;;;5009097;28;20077;-62
2021/12/06 08:40:20;;;;;;;80.35;39.65;;;0.40;99.90;;;;;;5010985;28;20056;-61
2021/12/06 08:42:47;;;;;;;85.63;41.40;;;3.50;99.90;;;;;;5009262;28;20061;-61
2021/12/06 08:45:14;;;;;;;91.57;44.55;;;2.30;99.90;;;;;;4990628;28;20080;-61
2021/12/06 08:47:41;;;;;;;93.90;46.15;;;3.30;99.90;;;;;;5008679;28;20062;-61
2021/12/06 08:50:10;;;;;;;94.75;47.30;;;2.80;99.90;;;;;;5009839;28;20207;-61
2021/12/06 08:52:36;;;;;;;90.18;45.13;;;2.20;99.90;;;;;;5010630;28;20049;-61
2021/12/06 08:55:05;;;;;;;79.22;38.72;;;0.20;99.90;;;;;;5008449;28;20370;-61
2021/12/06 08:57:31;;;;;;;93.22;42.85;;;2.10;99.90;;;;;;5010548;28;20084;-60
2021/12/06 08:59:56;;;;;;;102.70;47.92;;;3.90;99.90;;;;;;5010483;28;20554;-60
2021/12/06 09:02:22;;;;;;;105.00;51.13;;;0.40;99.90;;;;;;5010926;28;20476;-60
2021/12/06 09:04:48;;;;;;;106.07;51.65;;;2.90;99.90;;;;;;4990756;28;20039;-60
2021/12/06 09:07:15;;;;;;;98.90;46.85;;;0.60;99.90;;;;;;5011995;28;20034;-60
2021/12/06 09:09:49;;;;;;;99.15;45.97;;;1.10;99.90;;;;;;5006245;28;20034;-60
2021/12/06 09:12:24;;;;;;;104.22;48.65;;;0.30;99.90;;;;;;5008056;28;20066;-60
2021/12/06 09:14:52;;;;;;;108.13;52.00;;;0.90;99.90;;;;;;5008293;28;20041;-61
2021/12/06 09:17:18;;;;;;;107.38;51.45;;;2.00;99.90;;;;;;5009492;28;20038;-61
2021/12/06 09:19:45;;;;;;;102.32;48.78;;;3.10;99.90;;;;;;4989422;28;20052;-61
2021/12/06 09:22:11;;;;;;;117.13;53.83;;;0.30;99.90;;;;;;5007634;28;20396;-60
2021/12/06 09:24:36;;;;;;;109.07;49.45;;;0.70;99.90;;;;;;5010027;28;20044;-61
2021/12/06 09:27:02;;;;;;;113.13;50.55;;;3.40;99.90;;;;;;5008623;28;20661;-60
2021/12/06 09:29:29;;;;;;;105.45;48.50;;;3.90;99.90;;;;;;5007664;28;20053;-60
2021/12/06 09:31:59;;;;;;;89.75;40.10;;;0.60;99.90;;;;;;5008120;28;20037;-61
2021/12/06 09:34:27;;;;;;;93.07;42.50;;;3.60;99.90;;;;;;4993555;28;20045;-60
2021/12/06 09:36:53;;;;;;;103.82;47.47;;;0.30;99.90;;;;;;5009955;28;20620;-61
2021/12/06 09:39:19;;;;;;;112.20;50.35;;;0.80;99.90;;;;;;5009827;28;20046;-60
2021/12/06 09:41:45;;;;;;;98.22;44.67;;;4.10;99.90;;;;;;5002944;28;20071;-61
2021/12/06 09:44:11;;;;;;;91.82;42.22;;;3.30;99.90;;;;;;5005701;28;20041;-60
2021/12/06 09:46:39;;;;;;;87.22;41.47;;;3.60;99.90;;;;;;5008166;28;20046;-60
2021/12/06 09:49:14;;;;;;;91.00;42.72;;;2.80;99.90;;;;;;5008598;28;20499;-61
2021/12/06 09:51:43;;;;;;;85.15;40.58;;;2.30;99.90;;;;;;5025823;28;20108;-60
2021/12/06 09:54:11;;;;;;;92.80;42.65;;;2.10;99.90;;;;;;5026268;28;20038;-59
2021/12/06 09:56:41;;;;;;;98.95;45.38;;;3.20;99.90;;;;;;4991418;28;20050;-59
2021/12/06 09:59:11;;;;;;;75.60;36.90;;;4.00;99.90;;;;;;5006197;28;20049;-59
2021/12/06 10:01:48;;;;;;;78.70;39.30;;;3.50;99.90;;;;;;5008889;28;20491;-59
2021/12/06 10:04:15;;;;;;;77.45;38.10;;;3.50;99.90;;;;;;5010691;28;20116;-59
2021/12/06 10:06:43;;;;;;;73.38;37.95;;;4.10;99.90;;;;;;5008357;28;20050;-60
2021/12/06 10:09:11;;;;;;;69.63;35.67;;;4.10;99.90;;;;;;5010230;28;20038;-60
2021/12/06 10:11:37;;;;;;;86.43;41.72;;;2.50;99.90;;;;;;5010474;28;20575;-60
2021/12/06 10:14:03;;;;;;;75.40;35.95;;;0.60;99.90;;;;;;5009472;28;20317;-59
2021/12/06 10:16:30;;;;;;;74.10;36.72;;;4.10;99.90;;;;;;5010097;28;20049;-60
2021/12/06 10:18:55;;;;;;;84.80;38.35;;;2.20;99.90;;;;;;5010487;28;20045;-59
2021/12/06 10:21:24;;;;;;;68.53;35.38;;;1.20;99.90;;;;;;5024766;28;20056;-60
2021/12/06 10:23:50;;;;;;;64.05;31.48;;;3.90;99.90;;;;;;5010080;28;20510;-59
2021/12/06 10:26:23;;;;;;;73.75;37.08;;;4.10;99.90;;;;;;5008976;28;20084;-60
2021/12/06 10:28:54;;;;;;;70.82;34.72;;;2.10;99.90;;;;;;4989284;28;20121;-59
2021/12/06 10:31:19;;;;;;;77.80;38.60;;;4.10;99.90;;;;;;5006154;28;20045;-60
2021/12/06 10:33:47;;;;;;;67.05;34.20;;;4.10;99.90;;;;;;5009684;28;20400;-60
2021/12/06 10:36:17;;;;;;;62.03;31.48;;;4.40;99.90;;;;;;5009087;28;20485;-59
2021/12/06 10:38:47;;;;;;;59.08;32.97;;;4.20;99.90;;;;;;4992164;28;20258;-59
2021/12/06 10:41:18;;;;;;;60.78;32.45;;;1.20;99.90;;;;;;5010126;28;20045;-59
2021/12/06 10:43:58;;;;;;;60.83;34.85;;;1.20;99.90;;;;;;5010285;28;20453;-59
2021/12/06 10:46:26;;;;;;;60.70;33.15;;;3.40;99.90;;;;;;5009809;28;20057;-59
2021/12/06 10:48:55;;;;;;;59.85;31.25;;;0.90;99.90;;;;;;5009302;28;20116;-59
2021/12/06 10:51:23;;;;;;;54.03;29.42;;;2.20;99.90;;;;;;5003940;28;20454;-59
2021/12/06 10:54:16;;;;;;;62.63;33.33;;;0.90;99.90;;;;;;5008899;28;20030;-59
2021/12/06 10:56:46;;;;;;;62.40;34.58;;;2.70;99.90;;;;;;5009538;28;20085;-59
2021/12/06 10:59:20;;;;;;;60.13;33.28;;;3.50;99.90;;;;;;5008360;28;20044;-59
2021/12/06 11:01:49;;;;;;;57.95;30.35;;;0.90;99.90;;;;;;5006588;28;20042;-60
2021/12/06 11:04:17;;;;;;;65.40;34.92;;;3.90;99.90;;;;;;5008800;28;20045;-59
2021/12/06 11:06:49;;;;;;;53.45;29.30;;;4.40;99.90;;;;;;5006427;28;20070;-59
2021/12/06 11:09:18;;;;;;;58.28;33.30;;;4.00;99.90;;;;;;5006220;28;20038;-59
2021/12/06 11:11:50;;;;;;;61.97;34.17;;;2.60;99.90;;;;;;5006235;28;20049;-60
2021/12/06 11:14:22;;;;;;;58.15;30.73;;;1.20;99.90;;;;;;5008096;28;20500;-59
2021/12/06 11:17:07;;;;;;;54.05;28.50;;;4.20;99.90;;;;;;5022178;28;20046;-60
2021/12/06 11:19:34;;;;;;;44.13;25.15;;;3.10;99.90;;;;;;5006330;28;20403;-59
2021/12/06 11:22:04;;;;;;;47.15;25.58;;;3.50;99.90;;;;;;5008297;28;20041;-60
2021/12/06 11:24:30;;;;;;;41.83;24.63;;;2.00;99.90;;;;;;5007240;28;20092;-60
2021/12/06 11:27:11;;;;;;;46.92;25.40;;;2.90;99.90;;;;;;4990365;28;20060;-60
2021/12/06 11:29:41;;;;;;;42.55;24.60;;;1.40;99.90;;;;;;5021546;28;20038;-60
2021/12/06 11:32:07;;;;;;;45.70;26.95;;;1.30;99.90;;;;;;5007725;28;20088;-60
2021/12/06 11:34:39;;;;;;;48.47;26.27;;;1.70;99.90;;;;;;5007852;28;20457;-60
2021/12/06 11:37:18;;;;;;;46.75;27.17;;;3.60;99.90;;;;;;5014806;28;20042;-61
2021/12/06 11:39:48;;;;;;;55.00;31.60;;;4.00;99.90;;;;;;4993293;28;20037;-61
2021/12/06 11:42:14;;;;;;;46.92;26.73;;;3.90;99.90;;;;;;5005869;28;20042;-61
2021/12/06 11:44:42;;;;;;;45.58;27.33;;;1.30;99.90;;;;;;5007128;28;20483;-61
2021/12/06 11:47:18;;;;;;;52.67;27.73;;;3.80;99.90;;;;;;4990180;28;20120;-61
2021/12/06 11:49:53;;;;;;;47.45;27.75;;;3.90;99.90;;;;;;5006906;28;20049;-60
2021/12/06 11:52:22;;;;;;;51.05;29.42;;;1.50;99.90;;;;;;5006420;28;20041;-60
2021/12/06 11:55:06;;;;;;;57.30;29.48;;;3.60;99.90;;;;;;5006281;28;20103;-61
2021/12/06 11:57:42;;;;;;;54.85;30.70;;;1.10;99.90;;;;;;5007049;28;20101;-61
2021/12/06 12:00:16;;;;;;;57.22;32.03;;;4.00;99.90;;;;;;5005865;28;20046;-60
2021/12/06 12:02:42;;;;;;;50.40;26.95;;;3.60;99.90;;;;;;5006320;28;20041;-61
2021/12/06 12:05:10;;;;;;;59.67;32.00;;;0.90;99.90;;;;;;5007439;28;20045;-60
2021/12/06 12:07:52;;;;;;;54.88;30.10;;;2.10;99.90;;;;;;5007439;28;20113;-59
2021/12/06 12:10:54;;;;;;;60.45;32.38;;;0.90;99.90;;;;;;5007581;28;20375;-60
2021/12/06 12:13:27;;;;;;;58.25;32.25;;;2.90;99.90;;;;;;5003070;28;20061;-61
2021/12/06 12:15:56;;;;;;;60.20;34.97;;;1.40;99.90;;;;;;5007683;28;20052;-61
2021/12/06 12:18:23;;;;;;;50.28;27.48;;;1.80;99.90;;;;;;5023330;28;20042;-60
2021/12/06 12:20:50;;;;;;;56.22;31.63;;;2.80;99.90;;;;;;5009305;28;20392;-60
2021/12/06 12:23:16;;;;;;;48.22;27.27;;;4.10;99.90;;;;;;5011054;28;20046;-61
2021/12/06 12:25:53;;;;;;;52.13;27.00;;;3.60;99.90;;;;;;5012298;28;20046;-60
2021/12/06 12:28:23;;;;;;;49.15;27.23;;;1.20;99.90;;;;;;5010938;28;20081;-61
2021/12/06 12:30:52;;;;;;;44.28;25.27;;;1.80;99.90;;;;;;5014678;28;20508;-60
2021/12/06 12:33:20;;;;;;;49.60;30.05;;;1.10;99.90;;;;;;5010790;28;20396;-61
2021/12/06 12:35:49;;;;;;;46.72;26.55;;;1.30;99.90;;;;;;5009875;28;20508;-61
2021/12/06 12:38:25;;;;;;;44.75;25.88;;;4.10;99.90;;;;;;5009385;28;20117;-60
2021/12/06 12:40:58;;;;;;;46.20;28.25;;;3.00;99.90;;;;;;5009194;28;20049;-61
2021/12/06 12:43:53;;;;;;;46.97;26.50;;;1.50;99.90;;;;;;5011097;28;20042;-61
2021/12/06 12:46:25;;;;;;;48.92;28.00;;;4.00;99.90;;;;;;5009493;28;20479;-60
2021/12/06 12:48:59;;;;;;;48.63;27.58;;;1.80;99.90;;;;;;5009087;28;20042;-61
2021/12/06 12:51:30;;;;;;;45.35;26.02;;;3.10;99.90;;;;;;5011114;28;20492;-60
2021/12/06 12:53:59;;;;;;;39.03;22.75;;;2.90;99.90;;;;;;5013679;28;20043;-60
2021/12/06 12:56:37;;;;;;;45.63;27.42;;;4.10;99.90;;;;;;5012209;28;20077;-61
2021/12/06 12:59:29;;;;;;;42.38;23.00;;;3.90;99.90;;;;;;5011311;28;20046;-60
2021/12/06 13:02:25;;;;;;;46.42;27.05;;;1.30;99.90;;;;;;5010719;28;20531;-60